Time;durP1;ratioP1;P1;durP2;ratioP2;P2;SDS_P1;SDS_P2;PMS_P1;PMS_P2;Temp;Humidity;BMP_temperature;BMP_pressure;BME280_temperature;BME280_humidity;BME280_pressure;Samples;Min_cycle;Max_cycle;Signal;HPM_P1;HPM_P2
2023/03/05 00:01:34;;;;;;;2.65;1.15;;;;;;;2.15;67.50;99011.53;4456457;32;35215;-77
2023/03/05 00:04:04;;;;;;;1.00;1.00;;;;;;;1.28;71.30;99012.44;4456941;32;33448;-76
2023/03/05 00:06:32;;;;;;;0.85;0.85;;;;;;;1.60;70.18;99006.22;4470355;32;33928;-76
2023/03/05 00:09:01;;;;;;;1.17;1.17;;;;;;;1.26;71.18;99000.41;4470223;32;34917;-76
2023/03/05 00:11:30;;;;;;;0.90;0.90;;;;;;;1.60;70.50;99001.94;4456226;32;35150;-76
2023/03/05 00:14:00;;;;;;;0.80;0.80;;;;;;;1.47;70.42;99005.13;4456162;32;33683;-76
2023/03/05 00:16:28;;;;;;;2.67;1.90;;;;;;;1.32;71.56;99003.97;4456358;32;33878;-76
2023/03/05 00:18:58;;;;;;;4.20;3.75;;;;;;;1.45;71.18;98999.97;4456201;32;35107;-77
2023/03/05 00:21:29;;;;;;;1.73;1.62;;;;;;;1.80;69.64;99004.91;4456100;32;33728;-76
2023/03/05 00:24:00;;;;;;;1.17;1.17;;;;;;;1.74;69.51;99009.06;4456266;32;33312;-76
2023/03/05 00:26:29;;;;;;;0.90;0.90;;;;;;;1.86;69.31;99007.59;4456234;32;34010;-76
2023/03/05 00:28:58;;;;;;;3.12;1.48;;;;;;;1.51;70.11;99009.47;4469994;32;35988;-76
2023/03/05 00:31:29;;;;;;;2.62;2.50;;;;;;;1.95;68.87;99014.59;4470098;32;34508;-76
2023/03/05 00:33:59;;;;;;;0.90;0.90;;;;;;;1.99;68.66;99011.25;4456111;32;32601;-76
2023/03/05 00:36:28;;;;;;;2.35;2.25;;;;;;;1.91;68.08;99015.38;4456137;32;33605;-76
2023/03/05 00:38:57;;;;;;;2.85;2.72;;;;;;;1.51;69.54;99009.47;4455276;32;35886;-76
2023/03/05 00:41:25;;;;;;;1.67;1.58;;;;;;;1.94;68.52;99007.75;4469836;32;34472;-76
2023/03/05 00:43:54;;;;;;;0.70;0.70;;;;;;;2.24;67.42;99011.69;4456062;32;34216;-76
2023/03/05 00:46:23;;;;;;;1.92;1.80;;;;;;;2.14;67.24;99015.81;4469641;32;33957;-77
2023/03/05 00:48:51;;;;;;;1.00;1.00;;;;;;;2.40;66.36;99011.13;4469877;32;35062;-76
2023/03/05 00:51:20;;;;;;;1.10;1.10;;;;;;;2.14;66.68;99014.94;4455910;32;34603;-76
2023/03/05 00:53:49;;;;;;;0.80;0.80;;;;;;;2.47;65.93;99004.34;4456101;32;33501;-77
2023/03/05 00:56:17;;;;;;;0.70;0.70;;;;;;;2.47;65.98;99002.66;4455860;32;34818;-76
2023/03/05 00:58:45;;;;;;;0.80;0.80;;;;;;;1.80;67.72;98996.34;4469919;32;34843;-77
2023/03/05 01:01:13;;;;;;;1.23;1.23;;;;;;;2.13;66.71;99003.78;4455673;32;35253;-76
2023/03/05 01:03:41;;;;;;;1.87;1.77;;;;;;;2.24;66.91;99004.84;4469801;32;33745;-76
2023/03/05 01:06:12;;;;;;;0.90;0.90;;;;;;;2.04;67.35;99007.06;4455741;32;33777;-76
2023/03/05 01:08:40;;;;;;;2.58;1.17;;;;;;;2.31;66.58;99005.81;4455458;32;35064;-76
2023/03/05 01:11:09;;;;;;;0.80;0.80;;;;;;;2.60;65.69;99003.72;4469583;32;35292;-76
2023/03/05 01:13:37;;;;;;;1.37;1.23;;;;;;;2.40;65.95;99003.41;4455566;32;33434;-76
2023/03/05 01:16:06;;;;;;;0.88;0.88;;;;;;;2.16;66.43;99003.84;4469332;32;33811;-77
2023/03/05 01:18:34;;;;;;;2.95;2.25;;;;;;;2.38;66.39;98997.38;4455433;32;34902;-77
2023/03/05 01:21:03;;;;;;;0.60;0.60;;;;;;;2.54;65.63;98990.78;4455308;32;34418;-75
2023/03/05 01:23:33;;;;;;;2.05;1.85;;;;;;;2.41;65.84;99001.69;4455407;32;33488;-76
2023/03/05 01:26:01;;;;;;;1.10;1.10;;;;;;;2.75;64.87;99000.50;4469406;32;34808;-76
2023/03/05 01:28:29;;;;;;;2.15;2.05;;;;;;;2.24;66.63;99004.84;4455067;32;34808;-77
2023/03/05 01:30:57;;;;;;;1.90;1.80;;;;;;;2.78;65.29;99005.72;4442305;32;32969;-76
2023/03/05 01:33:25;;;;;;;0.65;0.65;;;;;;;2.67;65.49;99007.25;4455281;32;33477;-78
2023/03/05 01:35:54;;;;;;;0.70;0.70;;;;;;;2.64;65.21;99002.06;4469209;32;33950;-75
2023/03/05 01:38:22;;;;;;;0.75;0.75;;;;;;;2.74;64.89;99006.50;4481334;32;36054;-77
2023/03/05 01:40:50;;;;;;;0.80;0.80;;;;;;;2.72;64.86;99000.50;4484881;32;34521;-77
2023/03/05 01:43:25;;;;;;;0.60;0.60;;;;;;;2.62;65.27;98996.91;4470667;32;33467;-76
2023/03/05 01:46:12;;;;;;;3.80;3.17;;;;;;;2.72;65.65;98990.19;4470821;32;34023;-76
2023/03/05 01:48:41;;;;;;;1.42;1.33;;;;;;;2.72;65.84;98991.88;4484756;32;35065;-76
2023/03/05 01:51:09;;;;;;;1.60;1.50;;;;;;;2.51;66.13;98988.16;4472446;32;34447;-76
2023/03/05 01:53:38;;;;;;;0.70;0.70;;;;;;;2.74;65.68;98997.94;4447224;32;33960;-77
2023/03/05 01:56:06;;;;;;;3.20;2.55;;;;;;;2.98;64.98;98997.41;4473028;32;33919;-75
2023/03/05 01:58:35;;;;;;;1.55;1.45;;;;;;;2.92;65.28;99005.06;4486750;32;35934;-75
2023/03/05 02:01:03;;;;;;;1.35;1.35;;;;;;;3.06;64.40;99000.97;4472848;32;35292;-75
2023/03/05 02:03:32;;;;;;;1.15;1.15;;;;;;;2.74;65.48;98992.81;4486870;32;33608;-75
2023/03/05 02:06:00;;;;;;;1.83;1.73;;;;;;;2.81;65.28;98999.75;4487126;32;33778;-75
2023/03/05 02:08:28;;;;;;;1.25;1.25;;;;;;;2.92;64.59;99002.50;4486728;32;35832;-75
2023/03/05 02:10:57;;;;;;;1.37;1.25;;;;;;;2.92;64.67;98997.34;4487036;32;34557;-75
2023/03/05 02:13:28;;;;;;;0.88;0.88;;;;;;;2.65;65.02;98993.53;4486643;32;33534;-75
2023/03/05 02:15:58;;;;;;;0.90;0.90;;;;;;;2.76;64.86;98998.81;4472659;32;34002;-75
2023/03/05 02:18:26;;;;;;;1.40;1.40;;;;;;;3.04;63.98;98995.81;4472662;32;34991;-75
2023/03/05 02:20:55;;;;;;;0.80;0.80;;;;;;;3.81;60.46;98998.44;4487033;32;35215;-75
2023/03/05 02:23:25;;;;;;;1.40;1.40;;;;;;;2.92;62.71;98998.19;4486635;32;34275;-75
2023/03/05 02:25:54;;;;;;;0.70;0.70;;;;;;;2.78;63.77;98999.72;4486740;32;34003;-75
2023/03/05 02:28:25;;;;;;;1.02;1.02;;;;;;;2.35;65.83;99002.47;4486685;32;36046;-75
2023/03/05 02:30:54;;;;;;;0.80;0.80;;;;;;;2.60;65.56;98996.00;4472725;32;34439;-75
2023/03/05 02:33:22;;;;;;;0.60;0.60;;;;;;;2.75;64.78;98990.22;4486542;32;33584;-75
2023/03/05 02:35:50;;;;;;;0.70;0.70;;;;;;;2.75;65.35;98989.38;4485386;31;33859;-74
2023/03/05 02:38:21;;;;;;;1.87;1.55;;;;;;;3.08;64.24;98994.13;4486286;32;34003;-75
2023/03/05 02:40:49;;;;;;;1.23;1.12;;;;;;;2.60;65.40;98979.72;4472248;32;34557;-74
2023/03/05 02:43:18;;;;;;;0.95;0.95;;;;;;;2.85;64.08;98988.66;4486488;32;33722;-74
2023/03/05 02:45:46;;;;;;;5.97;4.62;;;;;;;3.19;62.91;98977.16;4486356;32;33871;-75
2023/03/05 02:48:16;;;;;;;0.70;0.70;;;;;;;3.20;62.11;98989.16;4444039;32;34827;-74
2023/03/05 02:50:44;;;;;;;0.90;0.90;;;;;;;3.43;60.61;98991.16;4470907;32;35126;-74
2023/03/05 02:53:12;;;;;;;0.70;0.70;;;;;;;3.32;60.71;98988.47;4471891;32;34207;-75
2023/03/05 02:55:40;;;;;;;0.70;0.70;;;;;;;3.11;61.17;98983.91;4486261;32;34750;-74
2023/03/05 02:58:08;;;;;;;0.88;0.88;;;;;;;2.83;61.54;98991.22;4472030;32;35027;-74
2023/03/05 03:00:37;;;;;;;1.65;1.55;;;;;;;2.75;61.82;98987.66;4486184;32;34263;-75
2023/03/05 03:03:05;;;;;;;0.70;0.70;;;;;;;1.46;66.95;98982.84;4486173;32;34150;-74
2023/03/05 03:05:35;;;;;;;0.75;0.75;;;;;;;1.09;69.70;98970.13;4485958;32;34574;-74
2023/03/05 03:08:04;;;;;;;1.15;1.15;;;;;;;1.30;68.75;98979.97;4456201;32;35843;-75
2023/03/05 03:10:32;;;;;;;0.70;0.70;;;;;;;2.13;64.75;98974.69;4470562;32;35155;-73
2023/03/05 03:13:02;;;;;;;1.35;1.33;;;;;;;2.08;64.07;98980.63;4483780;32;33295;-73
2023/03/05 03:15:31;;;;;;;0.98;0.98;;;;;;;2.18;62.98;98975.62;4472355;32;33763;-74
2023/03/05 03:17:59;;;;;;;1.75;1.65;;;;;;;1.92;62.65;98978.59;4486200;32;35969;-73
2023/03/05 03:20:29;;;;;;;1.10;1.10;;;;;;;1.92;63.48;98980.31;4486105;32;34507;-74
2023/03/05 03:22:57;;;;;;;0.73;0.73;;;;;;;1.72;63.17;98975.66;4471779;32;32590;-75
2023/03/05 03:25:25;;;;;;;2.28;2.17;;;;;;;0.51;69.14;98972.28;4486143;32;33912;-74
2023/03/05 03:27:53;;;;;;;1.12;1.10;;;;;;;1.44;64.76;98977.69;4471717;32;35096;-75
2023/03/05 03:30:22;;;;;;;0.80;0.80;;;;;;;1.37;64.51;98969.84;4486165;32;34581;-75
2023/03/05 03:32:51;;;;;;;0.80;0.80;;;;;;;1.47;63.84;98969.22;4485948;32;33616;-76
2023/03/05 03:35:19;;;;;;;0.80;0.80;;;;;;;1.10;64.91;98963.31;4471794;32;34114;-75
2023/03/05 03:37:48;;;;;;;0.90;0.90;;;;;;;1.25;63.78;98963.66;4487592;32;35039;-74
2023/03/05 03:40:16;;;;;;;0.90;0.90;;;;;;;0.43;67.74;98968.69;4485961;32;34141;-75
2023/03/05 03:42:44;;;;;;;1.15;1.10;;;;;;;0.59;68.45;98958.78;4485908;32;34180;-74
2023/03/05 03:45:14;;;;;;;2.70;2.58;;;;;;;0.93;66.89;98958.69;4472094;32;34029;-75
2023/03/05 03:47:42;;;;;;;1.48;1.37;;;;;;;0.90;66.01;98968.91;4471455;32;35664;-74
2023/03/05 03:50:11;;;;;;;0.70;0.70;;;;;;;0.99;65.14;98972.47;4458967;32;35117;-74
2023/03/05 03:52:39;;;;;;;0.80;0.80;;;;;;;0.79;65.90;98966.91;4485804;32;33041;-74
2023/03/05 03:55:08;;;;;;;0.80;0.80;;;;;;;0.53;67.27;98970.63;4471786;32;33759;-75
2023/03/05 03:57:36;;;;;;;1.17;1.17;;;;;;;0.40;68.15;98960.91;4485683;32;35175;-74
2023/03/05 04:00:09;;;;;;;1.48;1.48;;;;;;;0.75;67.12;98973.69;4471800;32;34488;-74
2023/03/05 04:02:38;;;;;;;1.00;1.00;;;;;;;0.45;69.24;98961.88;4456654;32;33285;-74
2023/03/05 04:05:07;;;;;;;0.70;0.70;;;;;;;0.37;69.96;98960.81;4470183;32;34848;-74
2023/03/05 04:07:35;;;;;;;0.70;0.70;;;;;;;0.27;69.84;98962.31;4478046;32;34916;-74
2023/03/05 04:10:04;;;;;;;1.00;1.00;;;;;;;1.03;66.66;98961.47;4471673;32;35212;-75
2023/03/05 04:12:33;;;;;;;0.70;0.70;;;;;;;-0.15;70.96;98959.56;4470522;32;33569;-74
2023/03/05 04:15:01;;;;;;;0.80;0.80;;;;;;;0.35;70.48;98955.69;4485679;32;34800;-75
2023/03/05 04:17:29;;;;;;;0.70;0.70;;;;;;;0.35;70.06;98954.81;4485529;32;35924;-74
2023/03/05 04:19:57;;;;;;;0.70;0.70;;;;;;;-0.01;72.34;98968.44;4471562;32;34358;-75
2023/03/05 04:22:26;;;;;;;0.80;0.80;;;;;;;0.28;73.12;98958.94;4485575;32;33637;-75
2023/03/05 04:24:54;;;;;;;0.70;0.70;;;;;;;0.82;70.98;98960.16;4471496;32;34722;-74
2023/03/05 04:27:22;;;;;;;0.70;0.70;;;;;;;1.18;69.18;98951.50;4485477;32;35011;-74
2023/03/05 04:29:50;;;;;;;0.70;0.70;;;;;;;1.40;67.67;98957.09;4485619;32;34446;-74
2023/03/05 04:32:21;;;;;;;0.80;0.80;;;;;;;0.76;69.24;98954.91;4485748;32;33835;-74
2023/03/05 04:34:50;;;;;;;1.05;1.05;;;;;;;1.42;66.76;98952.84;4471993;32;33763;-74
2023/03/05 04:37:18;;;;;;;2.17;2.08;;;;;;;1.12;67.52;98951.41;4471205;32;35083;-75
2023/03/05 04:39:46;;;;;;;1.12;1.02;;;;;;;0.57;71.15;98949.37;4485421;32;35012;-74
2023/03/05 04:42:15;;;;;;;0.70;0.70;;;;;;;0.60;71.87;98947.69;4471106;32;32769;-74
2023/03/05 04:44:43;;;;;;;0.80;0.80;;;;;;;1.20;69.21;98948.97;4471475;32;33874;-75
2023/03/05 04:47:11;;;;;;;0.80;0.80;;;;;;;0.90;70.53;98950.97;4485132;32;34069;-74
2023/03/05 04:49:39;;;;;;;0.80;0.80;;;;;;;1.17;68.74;98951.50;4471391;32;34521;-75
2023/03/05 04:52:09;;;;;;;0.70;0.70;;;;;;;1.26;69.44;98949.97;4485528;32;33352;-75
2023/03/05 04:54:37;;;;;;;0.90;0.90;;;;;;;1.00;71.35;98948.56;4458294;32;33321;-75
2023/03/05 04:57:05;;;;;;;1.27;1.27;;;;;;;0.61;72.56;98952.00;4485475;32;35125;-76
2023/03/05 04:59:33;;;;;;;0.70;0.70;;;;;;;1.74;69.54;98947.47;4471548;32;35290;-75
2023/03/05 05:02:02;;;;;;;0.60;0.60;;;;;;;1.90;69.26;98939.19;4471178;32;32783;-75
2023/03/05 05:04:30;;;;;;;0.70;0.70;;;;;;;1.83;69.99;98945.06;4471309;32;33916;-75
2023/03/05 05:06:58;;;;;;;1.15;1.02;;;;;;;1.27;71.82;98940.56;4471079;32;34228;-75
2023/03/05 05:09:26;;;;;;;0.70;0.70;;;;;;;1.82;70.32;98946.78;4485252;32;35263;-75
2023/03/05 05:11:55;;;;;;;0.90;0.90;;;;;;;1.61;72.50;98952.38;4485253;32;34583;-76
2023/03/05 05:14:23;;;;;;;0.70;0.70;;;;;;;2.06;71.15;98950.59;4485140;32;33968;-75
2023/03/05 05:16:51;;;;;;;2.00;1.92;;;;;;;1.50;72.90;98948.72;4458288;32;35163;-75
2023/03/05 05:19:19;;;;;;;3.10;1.40;;;;;;;2.14;71.20;98945.59;4485099;32;34457;-75
2023/03/05 05:21:47;;;;;;;1.98;1.87;;;;;;;2.37;70.03;98951.09;4471070;32;33440;-75
2023/03/05 05:24:15;;;;;;;0.70;0.70;;;;;;;2.62;68.70;98954.91;4485931;32;33399;-75
2023/03/05 05:26:43;;;;;;;0.70;0.70;;;;;;;2.52;69.17;98951.31;4487138;32;34942;-75
2023/03/05 05:29:11;;;;;;;0.70;0.70;;;;;;;2.76;68.27;98949.97;4472912;32;34430;-75
2023/03/05 05:31:39;;;;;;;0.70;0.70;;;;;;;2.76;68.01;98966.25;4460063;32;32700;-75
2023/03/05 05:34:08;;;;;;;0.90;0.90;;;;;;;2.66;68.70;98959.25;4459872;32;34148;-75
2023/03/05 05:36:36;;;;;;;0.95;0.95;;;;;;;2.60;69.19;98959.16;4473076;32;35095;-75
2023/03/05 05:39:04;;;;;;;0.70;0.70;;;;;;;2.58;69.08;98961.72;4486966;32;34320;-75
2023/03/05 05:41:32;;;;;;;0.80;0.80;;;;;;;1.87;72.06;98958.00;4487059;32;33550;-75
2023/03/05 05:44:00;;;;;;;1.30;1.23;;;;;;;1.67;73.85;98957.59;4486893;32;34723;-75
2023/03/05 05:46:28;;;;;;;1.00;1.00;;;;;;;2.57;70.08;98946.25;4472753;32;34994;-75
2023/03/05 05:48:57;;;;;;;0.80;0.80;;;;;;;1.89;72.58;98953.75;4486920;32;34358;-75
2023/03/05 05:51:25;;;;;;;1.48;1.40;;;;;;;2.14;72.67;98976.44;4472918;32;34294;-75
2023/03/05 05:53:53;;;;;;;1.35;1.25;;;;;;;2.22;73.00;98987.66;4459897;32;33139;-75
2023/03/05 05:56:22;;;;;;;0.60;0.60;;;;;;;2.66;72.23;98974.66;4486637;32;35880;-75
2023/03/05 05:58:50;;;;;;;0.60;0.60;;;;;;;2.75;71.87;98977.38;4472858;32;34560;-76
2023/03/05 06:01:27;;;;;;;0.90;0.90;;;;;;;2.75;71.76;98977.38;4486939;32;33686;-75
2023/03/05 06:03:56;;;;;;;1.08;1.08;;;;;;;2.88;71.42;98974.97;4472902;32;33831;-75
2023/03/05 06:06:25;;;;;;;0.90;0.90;;;;;;;3.01;69.97;98971.75;4486899;32;35130;-75
2023/03/05 06:08:54;;;;;;;1.40;1.30;;;;;;;3.10;69.81;98981.28;4472822;32;34773;-75
2023/03/05 06:11:22;;;;;;;1.25;1.20;;;;;;;3.30;68.51;98978.97;4473022;32;34167;-75
2023/03/05 06:13:51;;;;;;;1.35;1.25;;;;;;;3.83;67.08;98978.75;4486686;32;34767;-75
2023/03/05 06:16:22;;;;;;;0.60;0.60;;;;;;;3.70;67.09;98979.44;4472712;32;35119;-75
2023/03/05 06:18:51;;;;;;;1.45;1.45;;;;;;;3.32;68.85;98982.41;4472967;32;34549;-75
2023/03/05 06:21:20;;;;;;;0.98;0.98;;;;;;;3.42;68.60;98979.13;4472709;32;33434;-75
2023/03/05 06:23:49;;;;;;;0.60;0.60;;;;;;;3.55;68.41;98985.31;4472488;32;33804;-75
2023/03/05 06:26:20;;;;;;;0.65;0.65;;;;;;;3.84;66.86;98983.03;4472618;32;35138;-75
2023/03/05 06:28:49;;;;;;;0.75;0.73;;;;;;;4.50;64.81;98985.34;4472715;32;35041;-75
2023/03/05 06:31:22;;;;;;;1.95;1.35;;;;;;;4.45;65.39;98981.91;4486703;32;33552;-75
2023/03/05 06:33:51;;;;;;;1.80;1.70;;;;;;;3.94;65.71;98984.88;4473016;32;33095;-75
2023/03/05 06:36:20;;;;;;;0.90;0.90;;;;;;;4.31;65.02;98987.78;4471859;32;35061;-76
2023/03/05 06:38:49;;;;;;;1.10;1.05;;;;;;;3.86;66.73;98991.62;4471301;32;34287;-75
2023/03/05 06:41:23;;;;;;;0.60;0.60;;;;;;;4.19;66.12;98979.94;4485527;32;33532;-75
2023/03/05 06:43:52;;;;;;;1.05;0.98;;;;;;;4.09;64.88;98984.12;4471417;32;34341;-75
2023/03/05 06:46:26;;;;;;;0.68;0.68;;;;;;;4.49;64.01;98983.62;4470527;32;33666;-75
2023/03/05 06:48:56;;;;;;;5.20;0.93;;;;;;;4.31;64.25;98982.63;4485246;32;34565;-74
2023/03/05 06:51:30;;;;;;;0.90;0.90;;;;;;;3.96;64.73;98980.59;4471650;32;32855;-75
2023/03/05 06:54:00;;;;;;;0.90;0.90;;;;;;;4.62;63.34;98977.69;4471662;32;34649;-75
2023/03/05 06:56:29;;;;;;;0.80;0.80;;;;;;;4.67;62.74;98983.75;4471637;32;35177;-75
2023/03/05 06:58:58;;;;;;;0.80;0.80;;;;;;;4.22;63.35;98979.09;4485690;32;34416;-72
2023/03/05 07:01:26;;;;;;;0.60;0.60;;;;;;;3.97;65.28;98979.75;4485972;32;33560;-75
2023/03/05 07:03:57;;;;;;;1.35;1.35;;;;;;;3.88;65.75;98982.25;4485693;32;33909;-74
2023/03/05 07:06:29;;;;;;;0.80;0.80;;;;;;;4.57;63.71;98982.00;4486411;32;35014;-74
2023/03/05 07:08:59;;;;;;;0.80;0.80;;;;;;;3.99;66.09;98983.19;4472785;32;34491;-75
2023/03/05 07:11:28;;;;;;;2.92;1.95;;;;;;;4.24;64.60;98982.56;4472056;32;31712;-75
2023/03/05 07:13:57;;;;;;;1.00;1.00;;;;;;;4.67;63.72;98982.91;4486116;32;34010;-74
2023/03/05 07:16:27;;;;;;;1.23;1.12;;;;;;;4.11;65.65;98981.56;4472173;32;35945;-75
2023/03/05 07:18:57;;;;;;;1.00;1.00;;;;;;;3.89;66.24;98996.81;4470130;32;34360;-74
2023/03/05 07:21:28;;;;;;;0.90;0.90;;;;;;;4.25;65.34;98984.28;4472337;32;32732;-73
2023/03/05 07:23:58;;;;;;;0.70;0.70;;;;;;;4.22;65.75;98995.44;4486014;32;33289;-73
2023/03/05 07:26:27;;;;;;;0.65;0.65;;;;;;;4.22;66.29;98982.56;4486051;32;36079;-73
2023/03/05 07:28:55;;;;;;;3.60;3.00;;;;;;;4.21;66.29;98991.12;4485900;32;34880;-74
2023/03/05 07:31:30;;;;;;;1.00;1.00;;;;;;;4.25;66.14;98990.28;4472214;32;33415;-73
2023/03/05 07:34:01;;;;;;;2.08;1.40;;;;;;;4.37;66.05;98998.12;4472682;32;34772;-73
2023/03/05 07:36:29;;;;;;;0.62;0.62;;;;;;;4.46;65.64;98988.75;4471767;32;34220;-74
2023/03/05 07:38:57;;;;;;;9.32;1.77;;;;;;;4.77;64.33;98989.88;4471985;32;34602;-75
2023/03/05 07:41:26;;;;;;;0.95;0.85;;;;;;;4.74;64.46;98990.69;4486510;32;33282;-75
2023/03/05 07:43:55;;;;;;;1.33;1.23;;;;;;;4.54;64.40;98987.97;4486216;32;33887;-75
2023/03/05 07:46:26;;;;;;;0.82;0.82;;;;;;;4.65;64.37;98993.22;4485793;32;35145;-75
2023/03/05 07:48:55;;;;;;;1.00;1.00;;;;;;;4.36;65.20;98993.84;4468201;32;34447;-74
2023/03/05 07:51:25;;;;;;;0.93;0.93;;;;;;;4.71;64.95;98988.13;4469281;32;33429;-75
2023/03/05 07:53:56;;;;;;;0.70;0.70;;;;;;;4.88;64.06;98977.03;4469518;32;33751;-75
2023/03/05 07:56:30;;;;;;;0.90;0.90;;;;;;;4.62;64.67;98982.88;4469124;32;34808;-75
2023/03/05 07:59:00;;;;;;;0.80;0.80;;;;;;;4.69;65.18;98982.06;4469283;32;35143;-75
2023/03/05 08:01:29;;;;;;;1.73;1.62;;;;;;;4.48;65.89;98982.78;4470332;32;34019;-75
2023/03/05 08:03:58;;;;;;;1.02;1.02;;;;;;;4.49;66.63;98983.62;4468292;32;34739;-74
2023/03/05 08:06:26;;;;;;;0.80;0.80;;;;;;;4.83;65.03;98981.28;4470289;32;35990;-74
2023/03/05 08:08:54;;;;;;;0.77;0.77;;;;;;;4.64;65.57;98978.59;4469851;32;34036;-74
2023/03/05 08:11:23;;;;;;;0.60;0.60;;;;;;;4.39;65.87;98974.09;4470160;32;33440;-74
2023/03/05 08:13:51;;;;;;;3.42;3.12;;;;;;;4.36;67.23;98975.81;4468807;32;33771;-74
2023/03/05 08:16:20;;;;;;;1.35;1.33;;;;;;;4.62;65.92;98977.69;4469972;32;34955;-74
2023/03/05 08:18:49;;;;;;;0.85;0.85;;;;;;;5.02;64.36;98975.38;4469659;32;35461;-75
2023/03/05 08:21:19;;;;;;;1.12;1.08;;;;;;;5.07;65.91;98973.69;4470017;32;34269;-74
2023/03/05 08:23:48;;;;;;;0.50;0.50;;;;;;;5.00;65.44;98984.84;4468194;32;33974;-74
2023/03/05 08:26:20;;;;;;;1.60;1.50;;;;;;;4.82;64.77;98972.69;4467366;32;35837;-75
2023/03/05 08:28:49;;;;;;;2.37;1.02;;;;;;;5.35;63.46;98976.44;4469785;32;33809;-76
2023/03/05 08:31:20;;;;;;;1.70;1.55;;;;;;;5.44;62.82;98973.88;4470022;32;33537;-76
2023/03/05 08:33:49;;;;;;;0.60;0.60;;;;;;;5.54;62.50;98979.97;4468662;32;34113;-74
2023/03/05 08:36:18;;;;;;;1.75;1.45;;;;;;;5.86;61.50;98981.78;4469042;32;35121;-74
2023/03/05 08:38:47;;;;;;;1.33;1.33;;;;;;;5.75;61.82;98976.56;4469526;32;35233;-74
2023/03/05 08:41:16;;;;;;;1.33;1.23;;;;;;;5.28;62.81;98982.41;4469618;32;33325;-74
2023/03/05 08:43:45;;;;;;;1.23;1.10;;;;;;;5.55;61.74;98980.81;4469685;32;34026;-74
2023/03/05 08:46:14;;;;;;;1.08;1.08;;;;;;;5.51;61.79;98969.59;4468475;32;35788;-74
2023/03/05 08:48:43;;;;;;;0.80;0.80;;;;;;;5.07;63.44;98960.81;4452687;32;34292;-74
2023/03/05 08:51:21;;;;;;;0.52;0.52;;;;;;;5.28;63.69;98960.03;4453008;32;33323;-74
2023/03/05 08:53:49;;;;;;;0.50;0.50;;;;;;;5.34;64.04;98961.78;4459948;32;34940;-76
2023/03/05 08:56:17;;;;;;;1.30;1.20;;;;;;;5.27;64.82;98967.78;4455508;32;35343;-73
2023/03/05 08:58:46;;;;;;;1.17;1.08;;;;;;;5.83;63.00;98972.28;4454734;32;33062;-74
2023/03/05 09:01:15;;;;;;;1.02;1.02;;;;;;;5.73;63.61;98959.34;4468366;32;33514;-73
2023/03/05 09:03:43;;;;;;;2.03;1.67;;;;;;;5.94;61.77;98969.72;4455367;32;32574;-75
2023/03/05 09:06:11;;;;;;;0.75;0.68;;;;;;;5.79;63.99;98969.66;4468512;32;35085;-74
2023/03/05 09:08:40;;;;;;;0.50;0.50;;;;;;;5.99;62.06;98967.19;4468387;32;34002;-75
2023/03/05 09:11:11;;;;;;;1.15;1.15;;;;;;;6.17;61.97;98963.75;4455808;32;33534;-75
2023/03/05 09:13:39;;;;;;;1.20;1.20;;;;;;;6.38;61.46;98966.34;4468232;32;33052;-74
2023/03/05 09:16:11;;;;;;;0.50;0.50;;;;;;;6.17;62.45;98956.84;4468198;32;33578;-74
2023/03/05 09:18:40;;;;;;;1.15;1.05;;;;;;;6.10;61.50;98960.28;4468277;32;34412;-74
2023/03/05 09:21:14;;;;;;;1.90;1.80;;;;;;;6.58;61.23;98958.59;4454228;32;33990;-74
2023/03/05 09:23:43;;;;;;;0.70;0.70;;;;;;;6.55;60.67;98966.34;4459773;32;33900;-73
2023/03/05 09:26:12;;;;;;;1.62;1.55;;;;;;;6.36;61.51;98960.31;4458402;32;34759;-73
2023/03/05 09:28:41;;;;;;;0.60;0.60;;;;;;;6.68;59.93;98959.44;4454742;32;34123;-75
2023/03/05 09:31:09;;;;;;;1.30;0.95;;;;;;;6.36;60.64;98956.87;4452710;32;33131;-74
2023/03/05 09:33:38;;;;;;;0.55;0.55;;;;;;;6.24;61.34;98956.00;4454687;32;33894;-74
2023/03/05 09:36:25;;;;;;;0.52;0.52;;;;;;;6.70;60.23;98946.50;4451907;32;35108;-75
2023/03/05 09:38:55;;;;;;;0.60;0.60;;;;;;;6.29;61.49;98948.25;4459330;32;34118;-75
2023/03/05 09:41:42;;;;;;;0.75;0.75;;;;;;;6.50;60.02;98955.13;4457370;32;33427;-75
2023/03/05 09:44:22;;;;;;;;;;;;;;;6.74;58.61;98949.09;4462250;32;33878;-74
2023/03/05 09:46:56;;;;;;;1.17;1.10;;;;;;;6.23;59.94;98943.94;4468504;32;35433;-75
2023/03/05 09:49:32;;;;;;;0.50;0.50;;;;;;;6.42;59.81;98936.16;4455353;32;33630;-76
2023/03/05 09:52:06;;;;;;;4.53;1.52;;;;;;;6.45;59.42;98931.84;4440995;32;34127;-75
2023/03/05 09:54:39;;;;;;;1.52;1.35;;;;;;;6.78;58.48;98939.59;4453735;32;33692;-74
2023/03/05 09:57:20;;;;;;;3.67;2.80;;;;;;;6.80;57.72;98937.84;4453894;32;35017;-79
2023/03/05 10:00:06;;;;;;;1.12;1.02;;;;;;;6.69;57.30;98943.06;4467772;32;34484;-74
2023/03/05 10:02:47;;;;;;;1.08;1.05;;;;;;;6.34;58.45;98937.91;4454563;32;33307;-74
2023/03/05 10:05:24;;;;;;;0.70;0.70;;;;;;;6.62;57.12;98934.44;4453247;32;33978;-75
2023/03/05 10:07:59;;;;;;;;;;;;;;;6.67;57.51;98928.38;4469289;32;35062;-75
2023/03/05 10:10:50;;;;;;;1.35;0.95;;;;;;;6.89;55.81;98926.63;4469227;32;34160;-74
2023/03/05 10:13:32;;;;;;;0.62;0.62;;;;;;;6.44;58.05;98924.09;4457284;32;33757;-76
2023/03/05 10:16:22;;;;;;;0.65;0.65;;;;;;;6.69;56.99;98918.87;4445007;32;33260;-76
2023/03/05 10:19:08;;;;;;;0.40;0.40;;;;;;;6.84;56.44;98918.87;4456154;32;35496;-76
2023/03/05 10:22:15;;;;;;;1.23;1.12;;;;;;;7.40;55.20;98915.19;4456103;32;34527;-77
2023/03/05 10:25:05;;;;;;;0.60;0.60;;;;;;;7.51;54.96;98917.75;4453988;32;33424;-75
2023/03/05 10:27:48;;;;;;;2.95;2.37;;;;;;;6.95;56.22;98901.59;4470175;32;34515;-75
2023/03/05 10:30:31;;;;;;;2.53;2.35;;;;;;;7.22;55.24;98897.19;4468087;32;34586;-76
2023/03/05 10:33:30;;;;;;;0.93;0.93;;;;;;;8.41;52.54;98897.22;4471666;32;34613;-75
2023/03/05 10:36:12;;;;;;;1.52;1.42;;;;;;;9.26;51.65;98907.56;4478559;32;34130;-75
2023/03/05 10:39:00;;;;;;;1.58;1.30;;;;;;;10.38;48.01;98902.53;4455868;32;33879;-75
2023/03/05 10:41:37;;;;;;;2.78;1.87;;;;;;;10.04;48.88;98900.44;4469831;32;35078;-74
2023/03/05 10:44:39;;;;;;;17.52;4.40;;;;;;;11.05;44.66;98902.19;4455772;32;35323;-74
2023/03/05 10:47:34;;;;;;;0.52;0.52;;;;;;;11.17;45.85;98899.31;4442923;32;32852;-74
2023/03/05 10:50:22;;;;;;;1.25;1.23;;;;;;;10.56;45.34;98903.09;4471500;32;34722;-75
2023/03/05 10:53:12;;;;;;;1.73;1.62;;;;;;;9.93;45.95;98891.09;4471800;32;34682;-75
2023/03/05 10:55:41;;;;;;;2.45;2.25;;;;;;;9.30;48.35;98885.91;4482913;31;34314;-74
2023/03/05 10:58:15;;;;;;;1.05;0.73;;;;;;;9.35;48.07;98883.22;4469728;32;34289;-79
2023/03/05 11:01:09;;;;;;;0.50;0.50;;;;;;;9.27;48.20;98885.09;4442868;32;33372;-77
2023/03/05 11:04:02;;;;;;;1.08;0.82;;;;;;;9.07;48.19;98873.19;4469633;32;34677;-78
2023/03/05 11:06:41;;;;;;;0.95;0.95;;;;;;;9.01;48.18;98877.59;4442787;32;34251;-73
2023/03/05 11:09:19;;;;;;;0.70;0.70;;;;;;;8.91;48.33;98872.53;4455812;32;33518;-73
2023/03/05 11:12:16;;;;;;;0.70;0.70;;;;;;;8.45;49.41;98857.44;4455843;32;34395;-82
2023/03/05 11:15:04;;;;;;;0.75;0.75;;;;;;;7.88;50.25;98859.63;4469559;32;35089;-70
2023/03/05 11:18:02;;;;;;;1.67;1.58;;;;;;;7.84;49.98;98865.72;4469116;32;34461;-74
2023/03/05 11:20:33;;;;;;;2.05;1.85;;;;;;;8.27;50.18;98857.59;4456284;32;33441;-78
2023/03/05 11:23:15;;;;;;;0.70;0.70;;;;;;;8.21;49.54;98862.84;4430034;32;32588;-73
2023/03/05 11:26:00;;;;;;;0.98;0.98;;;;;;;8.28;49.64;98854.12;4469437;32;35860;-74
2023/03/05 11:28:35;;;;;;;0.50;0.50;;;;;;;8.32;50.56;98848.03;4469614;32;34460;-74
2023/03/05 11:31:11;;;;;;;0.40;0.40;;;;;;;8.77;49.35;98852.78;4455370;32;31666;-73
2023/03/05 11:33:54;;;;;;;2.75;1.75;;;;;;;8.91;47.46;98854.34;4442765;32;33383;-75
2023/03/05 11:36:24;;;;;;;0.73;0.73;;;;;;;8.99;49.19;98848.19;4469765;32;34684;-75
2023/03/05 11:39:16;;;;;;;0.77;0.77;;;;;;;10.13;45.82;98836.13;4455728;32;34388;-74
2023/03/05 11:41:52;;;;;;;2.35;2.15;;;;;;;10.86;43.11;98825.28;4455578;32;34154;-79
2023/03/05 11:44:39;;;;;;;1.75;1.65;;;;;;;11.63;41.71;98834.91;4469454;32;34760;-77
2023/03/05 11:47:35;;;;;;;1.85;1.02;;;;;;;11.02;42.52;98831.88;4469251;32;35032;-76
2023/03/05 11:50:28;;;;;;;1.80;1.70;;;;;;;11.07;42.56;98827.44;4455571;32;34999;-75
2023/03/05 11:53:06;;;;;;;0.40;0.40;;;;;;;9.41;45.45;98825.97;4469582;32;33354;-72
2023/03/05 11:55:40;;;;;;;1.33;1.23;;;;;;;10.12;44.57;98824.88;4443149;32;33975;-76
2023/03/05 11:58:16;;;;;;;0.95;0.93;;;;;;;10.91;43.42;98820.84;4469518;32;35131;-75
2023/03/05 12:00:46;;;;;;;1.50;1.12;;;;;;;11.62;42.63;98811.47;4470303;32;34439;-77
2023/03/05 12:03:18;;;;;;;0.47;0.45;;;;;;;11.55;43.75;98809.00;4455746;32;34116;-75